Hawk Point, MO

7:14 PM CDT on October 22, 2014 (GMT -0500)
Hase's Lair | Change Station
CLOSE
Current Station
Personal Weather Station
Location: Warrenton, MO
Elevation: 853 ft
Nearby Weather Stations

Elev 853 ft 38.79 °N, 91.14 °W | Updated 4 minutes ago

Clear
Clear
53.3 °F
Feels Like 53.3 °F
N
0.0
Wind Variable Wind from ESE
Gusts 0.0 mph

Today
High -- | Low -- °F
--% Chance of Precip.
Yesterday
High -- | Low -- °F
Precip. -- in
7:21 AM 6:16 PM
Waning Crescent, 1% visible
Pressure 30.18 in
Visibility 9.0 miles
Clouds Clear
Dew Point 47 °F
Humidity 78%
Rainfall 0.00 in
Snow Depth Not available.
UV 0 out of 12
Pollen 1.60 out of 12
Air Quality Not available.
Flu Activity No Activity
METAR KFYG 222315Z AUTO 11004KT 9SM CLR 15/05 A3018 RMK AO2

More Conditions Fewer Conditions

Pressure 30.18 in
Visibility 9.0 miles
Clouds Clear
Dew Point 47 °F
Humidity 78%
Rainfall 0.00 in
Snow Depth Not available.
UV 0 out of 12
Pollen 1.60 out of 12
Air Quality Not available.
Flu Activity No Activity
METAR KFYG 222315Z AUTO 11004KT 9SM CLR 15/05 A3018 RMK AO2

More Conditions Fewer Conditions

10-Day Weather Forecast

Almanac

Astronomy

Oct. 22, 2014 Rise Set
Actual Time 7:21 AM CDT 6:16 PM CDT
Civil Twilight 6:54 AM CDT 6:43 PM CDT
Nautical Twilight 6:22 AM CDT 7:14 PM CDT
Astronomical Twilight 5:51 AM CDT 7:45 PM CDT
Moon 6:03 AM CDT (10/22) 5:42 PM CDT (10/22)
Length of Visible Light 11h 49m
Length of Day
10h 54m
Tomorrow will be 2m 21s shorter.
Waning Crescent, 1% of the Moon is Illuminated
Today
Waning Crescent
Oct 23
New
Oct 30
First Quarter
Nov 6
Full
Nov 14
Last Quarter

Today's Extremes

State Highs State Lows

Community

WunderPhotos

Upload Photos

1,764,089 photos uploaded!

WunderBlogs® & News

Nearby

Snow Depth

Station Depth Elevation
No new snow has been reported.

Earthquake Activity

City Distance Mag. Time & Date
No recent earthquake activity has been reported nearby.
Minimum magnitude displayed is 2.5.

Coastal Water Temperatures

Place Temperature
No Stations Reporting

Nearby Weather Stations